createdAt,value
2022-08-05T00:01:36.549Z,63.97
2022-08-05T00:04:19.363Z,64.05
2022-08-05T00:06:47.299Z,64.31
2022-08-05T00:09:19.492Z,64.18
2022-08-05T00:11:48.700Z,64.70
2022-08-05T00:14:22.448Z,64.17
2022-08-05T00:16:54.975Z,64.05
2022-08-05T00:19:23.491Z,64.58
2022-08-05T00:21:53.954Z,64.56
2022-08-05T00:24:24.745Z,64.59
2022-08-05T00:26:53.356Z,64.30
2022-08-05T00:29:25.767Z,64.22
2022-08-05T00:32:12.398Z,64.33
2022-08-05T00:35:03.629Z,64.49
2022-08-05T00:37:35.908Z,64.22
2022-08-05T00:40:27.815Z,64.06
2022-08-05T00:42:58.995Z,64.14
2022-08-05T00:45:38.267Z,64.43
2022-08-05T00:48:09.460Z,64.60
2022-08-05T00:50:38.807Z,64.51
2022-08-05T00:53:09.821Z,65.29
2022-08-05T00:55:56.139Z,65.89
2022-08-05T00:58:27.434Z,65.94
2022-08-05T01:00:54.985Z,64.98
2022-08-05T01:03:23.428Z,64.89
2022-08-05T01:05:51.656Z,65.65
2022-08-05T01:08:39.202Z,66.09
2022-08-05T01:11:22.360Z,67.28
2022-08-05T01:14:27.742Z,67.32
2022-08-05T01:17:02.042Z,67.60
2022-08-05T01:20:02.424Z,67.12
2022-08-05T01:22:57.516Z,67.08
2022-08-05T01:25:39.753Z,67.27
2022-08-05T01:28:36.129Z,67.45
2022-08-05T01:31:28.296Z,67.26
2022-08-05T01:34:14.112Z,67.70
2022-08-05T01:36:47.671Z,70.66
2022-08-05T01:39:47.006Z,70.82
2022-08-05T01:42:07.302Z,71.22
2022-08-05T01:44:39.393Z,70.76
2022-08-05T01:47:10.375Z,70.62
2022-08-05T01:50:00.536Z,70.71
2022-08-05T01:52:32.255Z,71.44
2022-08-05T01:55:04.455Z,71.21
2022-08-05T01:58:10.983Z,72.03
2022-08-05T02:00:30.653Z,72.38
2022-08-05T02:03:29.083Z,72.79
2022-08-05T02:06:03.727Z,72.92
2022-08-05T02:08:57.883Z,73.28
2022-08-05T02:11:33.959Z,73.28
2022-08-05T02:14:15.635Z,73.37
2022-08-05T02:16:53.023Z,72.67
2022-08-05T02:19:41.396Z,71.35
2022-08-05T02:22:30.359Z,70.99
2022-08-05T02:25:13.416Z,71.22
2022-08-05T02:27:58.335Z,71.02
2022-08-05T02:30:34.507Z,70.64
2022-08-05T02:33:03.268Z,70.34
2022-08-05T02:35:44.933Z,70.22
2022-08-05T02:38:21.634Z,70.22
2022-08-05T02:40:55.958Z,70.18
2022-08-05T02:43:26.219Z,70.28
2022-08-05T02:45:54.208Z,70.18
2022-08-05T02:48:29.022Z,69.92
2022-08-05T02:51:02.851Z,70.34
2022-08-05T02:53:39.117Z,70.81
2022-08-05T02:56:16.021Z,70.78
2022-08-05T02:58:51.259Z,70.87
2022-08-05T03:01:23.764Z,71.03
2022-08-05T03:04:03.382Z,70.94
2022-08-05T03:06:54.187Z,70.97
2022-08-05T03:09:36.481Z,70.80
2022-08-05T03:12:07.816Z,70.98
2022-08-05T03:14:45.871Z,71.08
2022-08-05T03:17:13.514Z,70.38
2022-08-05T03:19:41.853Z,70.12
2022-08-05T03:22:15.970Z,69.51
2022-08-05T03:24:47.250Z,69.53
2022-08-05T03:27:20.013Z,69.25
2022-08-05T03:30:08.786Z,69.26
2022-08-05T03:32:34.931Z,69.75
2022-08-05T03:35:04.563Z,69.03
2022-08-05T03:37:32.580Z,68.87
2022-08-05T03:40:13.683Z,69.25
2022-08-05T03:42:51.757Z,70.48
2022-08-05T03:45:21.601Z,70.85
2022-08-05T03:47:50.678Z,70.81
2022-08-05T03:50:18.529Z,70.70
2022-08-05T03:54:59.130Z,70.27
2022-08-05T03:56:18.042Z,70.90
2022-08-05T03:59:02.817Z,71.18
2022-08-05T04:01:35.558Z,71.17
2022-08-05T04:04:09.005Z,71.31
2022-08-05T04:06:48.007Z,71.40
2022-08-05T04:09:20.440Z,71.87
2022-08-05T04:11:56.501Z,72.10
2022-08-05T04:14:30.165Z,72.81
2022-08-05T04:17:00.538Z,72.28
2022-08-05T04:19:31.290Z,72.22
2022-08-05T04:22:09.131Z,71.79
2022-08-05T04:24:53.027Z,71.33
2022-08-05T04:27:41.703Z,71.71
2022-08-05T04:30:09.416Z,71.19
2022-08-05T04:32:36.608Z,71.43
2022-08-05T04:35:05.871Z,71.26
2022-08-05T04:38:02.346Z,71.00
2022-08-05T04:40:20.207Z,71.03
2022-08-05T04:42:47.294Z,71.07
2022-08-05T04:45:31.372Z,71.53
2022-08-05T04:48:18.525Z,71.46
2022-08-05T04:51:03.697Z,71.25
2022-08-05T04:53:38.892Z,70.88
2022-08-05T04:56:32.810Z,70.60
2022-08-05T04:58:56.895Z,70.05
2022-08-05T05:01:33.559Z,69.06
2022-08-05T05:04:11.089Z,69.47
2022-08-05T05:06:49.360Z,69.65
2022-08-05T05:09:24.667Z,69.50
2022-08-05T05:11:54.370Z,69.54
2022-08-05T05:14:27.870Z,69.89
2022-08-05T05:17:03.372Z,69.85
2022-08-05T05:19:36.583Z,69.72
2022-08-05T05:22:24.032Z,69.59
2022-08-05T05:24:57.067Z,69.79
2022-08-05T05:27:45.741Z,69.55
2022-08-05T05:30:30.421Z,67.39
2022-08-05T05:33:16.150Z,66.51
2022-08-05T05:35:46.126Z,65.09
2022-08-05T05:38:14.433Z,65.28
2022-08-05T05:40:49.923Z,64.74
2022-08-05T05:43:22.281Z,64.44
2022-08-05T05:46:13.779Z,62.92
2022-08-05T05:48:44.380Z,62.65
2022-08-05T05:51:15.819Z,62.76
2022-08-05T05:53:45.930Z,61.82
2022-08-05T05:56:26.042Z,60.71
2022-08-05T05:59:05.424Z,60.11
2022-08-05T06:01:39.790Z,59.47
2022-08-05T06:04:12.773Z,58.83
2022-08-05T06:06:43.075Z,59.13
2022-08-05T06:09:17.094Z,59.05
2022-08-05T06:12:01.899Z,57.99
2022-08-05T06:14:34.816Z,57.79
2022-08-05T06:17:22.372Z,57.65
2022-08-05T06:19:56.733Z,57.94
2022-08-05T06:22:30.155Z,56.05
2022-08-05T06:25:58.976Z,56.37
2022-08-05T06:28:11.032Z,56.52
2022-08-05T06:30:37.210Z,55.37
2022-08-05T06:33:04.360Z,53.07
2022-08-05T06:36:06.972Z,52.90
2022-08-05T06:38:35.914Z,53.08
2022-08-05T06:41:07.883Z,53.25
2022-08-05T06:43:59.013Z,53.25
2022-08-05T06:46:23.806Z,51.73
2022-08-05T06:48:59.698Z,51.80
2022-08-05T06:51:30.726Z,51.92
2022-08-05T06:54:04.356Z,52.17
2022-08-05T06:56:33.365Z,50.91
2022-08-05T06:59:08.413Z,50.24
2022-08-05T07:01:37.122Z,51.42
2022-08-05T07:04:08.224Z,49.84
2022-08-05T07:06:35.265Z,49.51
2022-08-05T07:09:04.239Z,49.21
2022-08-05T07:11:37.141Z,49.01
2022-08-05T07:14:30.214Z,48.93
2022-08-05T07:17:59.468Z,47.93
2022-08-05T07:22:38.200Z,48.79
2022-08-05T07:25:22.006Z,48.17
2022-08-05T07:27:58.693Z,49.61
2022-08-05T07:30:39.141Z,47.02
2022-08-05T07:33:15.571Z,45.56
2022-08-05T07:36:02.995Z,45.41
2022-08-05T07:38:42.577Z,45.80
2022-08-05T07:42:07.743Z,46.13
2022-08-05T07:44:05.618Z,44.57
2022-08-05T07:46:41.719Z,45.28
2022-08-05T07:49:15.875Z,43.84
2022-08-05T07:51:53.355Z,42.76
2022-08-05T07:54:30.843Z,43.56
2022-08-05T07:57:13.560Z,42.88
2022-08-05T07:59:42.310Z,43.46
2022-08-05T08:02:16.524Z,43.86
2022-08-05T08:04:49.348Z,42.96
2022-08-05T08:07:22.101Z,41.35
2022-08-05T08:09:52.366Z,41.28
2022-08-05T08:12:37.172Z,42.01
2022-08-05T08:15:15.331Z,43.68
2022-08-05T08:17:49.942Z,42.12
2022-08-05T08:20:59.850Z,42.14
2022-08-05T08:24:03.225Z,41.51
2022-08-05T08:26:02.705Z,41.47
2022-08-05T08:28:37.016Z,41.37
2022-08-05T08:31:14.569Z,43.13
2022-08-05T08:33:44.939Z,42.16
2022-08-05T08:36:29.680Z,40.64
2022-08-05T08:38:59.513Z,39.02
2022-08-05T08:41:52.310Z,38.44
2022-08-05T08:45:24.776Z,39.07
2022-08-05T08:47:47.577Z,41.14
2022-08-05T08:50:32.732Z,38.74
2022-08-05T08:52:54.535Z,38.27
2022-08-05T08:55:31.982Z,39.25
2022-08-05T08:58:15.851Z,38.47
2022-08-05T09:00:43.314Z,37.02
2022-08-05T09:03:12.456Z,36.83
2022-08-05T09:06:07.648Z,38.16
2022-08-05T09:08:30.932Z,37.24
2022-08-05T09:10:58.682Z,36.54
2022-08-05T09:13:31.558Z,39.49
2022-08-05T09:15:59.968Z,36.86
2022-08-05T09:18:27.209Z,36.28
2022-08-05T09:20:54.614Z,35.15
2022-08-05T09:23:23.448Z,36.15
2022-08-05T09:26:09.691Z,35.54
2022-08-05T09:28:39.017Z,34.90
2022-08-05T09:31:22.832Z,33.07
2022-08-05T09:34:02.852Z,32.75
2022-08-05T09:36:53.856Z,32.37
2022-08-05T09:39:23.333Z,32.11
2022-08-05T09:42:17.427Z,33.31
2022-08-05T09:44:56.842Z,31.88
2022-08-05T09:47:36.302Z,32.36
2022-08-05T09:50:18.205Z,33.27
2022-08-05T09:53:02.156Z,34.42
2022-08-05T09:55:57.296Z,31.68
2022-08-05T09:58:22.901Z,31.57
2022-08-05T10:01:15.380Z,30.45
2022-08-05T10:04:10.034Z,30.07
2022-08-05T10:06:49.976Z,31.53
2022-08-05T10:09:27.443Z,31.95
2022-08-05T10:12:31.119Z,30.90
2022-08-05T10:15:16.982Z,30.94
2022-08-05T10:18:03.202Z,29.81
2022-08-05T10:20:32.249Z,29.72
2022-08-05T10:23:02.413Z,31.20
2022-08-05T10:25:30.652Z,29.88
2022-08-05T10:28:13.410Z,30.90
2022-08-05T10:32:48.367Z,31.32
2022-08-05T10:33:35.342Z,29.58
2022-08-05T10:36:04.806Z,29.01
2022-08-05T10:38:34.326Z,28.56
2022-08-05T10:41:13.817Z,27.84
2022-08-05T10:44:10.805Z,29.80
2022-08-05T10:46:45.766Z,28.62
2022-08-05T10:49:16.618Z,28.01
2022-08-05T10:51:48.618Z,27.93
2022-08-05T10:54:56.151Z,27.63
2022-08-05T10:57:30.989Z,26.99
2022-08-05T11:00:18.494Z,26.79
2022-08-05T11:03:25.002Z,26.49
2022-08-05T11:06:17.551Z,26.33
2022-08-05T11:09:32.202Z,26.99
2022-08-05T11:12:26.982Z,26.75
2022-08-05T11:15:19.596Z,27.69
2022-08-05T11:17:57.745Z,28.17
2022-08-05T11:20:53.717Z,31.01
2022-08-05T11:24:02.562Z,26.93
2022-08-05T11:26:28.014Z,27.09
2022-08-05T11:28:57.130Z,26.74
2022-08-05T11:31:54.051Z,26.68
2022-08-05T11:34:39.869Z,25.05
2022-08-05T11:38:29.583Z,25.24
2022-08-05T11:39:55.482Z,25.30
2022-08-05T11:42:40.537Z,26.04
2022-08-05T11:45:23.185Z,23.95
2022-08-05T11:47:57.541Z,24.69
2022-08-05T11:50:26.285Z,25.17
2022-08-05T11:52:58.033Z,24.34
2022-08-05T11:55:31.654Z,24.75
2022-08-05T11:58:10.417Z,25.07
2022-08-05T12:00:41.436Z,24.24
2022-08-05T12:03:31.420Z,23.70
2022-08-05T12:06:10.244Z,24.90
2022-08-05T12:08:50.004Z,24.38
2022-08-05T12:11:23.309Z,25.24
2022-08-05T12:14:04.609Z,24.03
2022-08-05T12:16:38.479Z,22.29
2022-08-05T12:20:26.466Z,22.28
2022-08-05T12:21:58.577Z,23.47
2022-08-05T12:24:28.667Z,22.75
2022-08-05T12:26:57.283Z,23.58
2022-08-05T12:29:27.543Z,23.08
2022-08-05T12:31:56.909Z,21.88
2022-08-05T12:34:29.489Z,23.96
2022-08-05T12:37:00.266Z,22.54
2022-08-05T12:39:34.646Z,22.36
2022-08-05T12:42:33.219Z,21.21
2022-08-05T12:45:08.710Z,21.23
2022-08-05T12:47:37.991Z,21.77
2022-08-05T12:50:16.261Z,22.66
2022-08-05T12:52:59.858Z,23.11
2022-08-05T12:55:32.700Z,23.36
2022-08-05T12:58:38.218Z,22.29
2022-08-05T13:02:00.355Z,22.05
2022-08-05T13:03:42.155Z,22.42
2022-08-05T13:06:18.031Z,22.60
2022-08-05T13:08:52.266Z,22.98
2022-08-05T13:12:03.056Z,21.64
2022-08-05T13:14:35.745Z,21.34
2022-08-05T13:17:10.414Z,21.51
2022-08-05T13:19:52.414Z,21.19
2022-08-05T13:22:28.275Z,22.39
2022-08-05T13:25:05.472Z,22.87
2022-08-05T13:27:35.582Z,22.78
2022-08-05T13:30:35.997Z,22.34
2022-08-05T13:33:01.096Z,22.43
2022-08-05T13:35:42.391Z,22.26
2022-08-05T13:38:28.148Z,21.90
2022-08-05T13:41:00.108Z,23.15
2022-08-05T13:43:44.130Z,21.99
2022-08-05T13:46:14.327Z,21.28
2022-08-05T13:48:57.601Z,21.99
2022-08-05T13:51:29.853Z,21.84
2022-08-05T13:54:11.836Z,23.27
2022-08-05T13:56:50.486Z,22.18
2022-08-05T13:59:24.451Z,22.13
2022-08-05T14:01:58.285Z,22.71
2022-08-05T14:05:05.966Z,23.14
2022-08-05T14:07:59.576Z,21.00
2022-08-05T14:10:31.059Z,21.50
2022-08-05T14:12:59.766Z,21.34
2022-08-05T14:16:08.734Z,22.92
2022-08-05T14:18:18.182Z,23.13
2022-08-05T14:20:55.054Z,21.55
2022-08-05T14:23:25.795Z,22.40
2022-08-05T14:25:58.025Z,23.03
2022-08-05T14:28:28.720Z,21.55
2022-08-05T14:31:01.381Z,21.41
2022-08-05T14:33:56.715Z,22.47
2022-08-05T14:36:21.337Z,22.59
2022-08-05T14:38:52.265Z,23.42
2022-08-05T14:41:19.528Z,22.71
2022-08-05T14:44:01.905Z,22.66
2022-08-05T14:46:35.259Z,22.74
2022-08-05T14:49:07.386Z,23.31
2022-08-05T14:51:37.596Z,22.83
2022-08-05T14:54:29.881Z,22.85
2022-08-05T14:56:55.474Z,23.63
2022-08-05T14:59:22.487Z,23.12
2022-08-05T15:01:50.413Z,23.23
2022-08-05T15:04:20.763Z,23.71
2022-08-05T15:06:51.219Z,23.43
2022-08-05T15:09:51.495Z,23.72
2022-08-05T15:12:08.920Z,23.58
2022-08-05T15:14:48.407Z,24.28
2022-08-05T15:17:47.097Z,24.12
2022-08-05T15:20:06.262Z,23.47
2022-08-05T15:22:37.388Z,23.58
2022-08-05T15:25:11.940Z,24.11
2022-08-05T15:27:42.977Z,24.23
2022-08-05T15:30:19.378Z,24.80
2022-08-05T15:32:47.059Z,25.18
2022-08-05T15:35:14.876Z,25.81
2022-08-05T15:38:34.708Z,26.44
2022-08-05T15:41:01.898Z,26.14
2022-08-05T15:43:20.581Z,27.17
2022-08-05T15:45:59.753Z,27.48
2022-08-05T15:48:28.588Z,27.47
2022-08-05T15:50:57.448Z,27.58
2022-08-05T15:53:26.503Z,26.64
2022-08-05T15:56:10.307Z,27.77
2022-08-05T15:58:41.359Z,26.98
2022-08-05T16:01:16.005Z,26.86
2022-08-05T16:03:48.185Z,27.65
2022-08-05T16:06:19.948Z,27.61
2022-08-05T16:08:51.012Z,28.26
2022-08-05T16:11:42.650Z,28.55
2022-08-05T16:14:09.040Z,28.49
2022-08-05T16:16:36.824Z,28.37
2022-08-05T16:19:06.286Z,29.06
2022-08-05T16:21:59.235Z,29.11
2022-08-05T16:24:41.872Z,28.96
2022-08-05T16:27:07.770Z,28.88
2022-08-05T16:29:37.367Z,29.47
2022-08-05T16:32:09.741Z,29.12
2022-08-05T16:34:41.809Z,29.52
2022-08-05T16:38:01.982Z,29.49
2022-08-05T16:40:05.350Z,29.90
2022-08-05T16:42:35.116Z,29.92
2022-08-05T16:46:04.818Z,29.92
2022-08-05T16:47:55.575Z,29.78
2022-08-05T16:50:25.800Z,30.27
2022-08-05T16:52:52.854Z,30.11
2022-08-05T16:55:24.583Z,29.81
2022-08-05T16:57:59.899Z,30.37
2022-08-05T17:00:34.670Z,30.25
2022-08-05T17:03:03.850Z,30.10
2022-08-05T17:05:37.001Z,30.61
2022-08-05T17:08:04.991Z,30.51
2022-08-05T17:10:32.079Z,30.99
2022-08-05T17:12:59.215Z,30.98
2022-08-05T17:15:29.392Z,31.18
2022-08-05T17:18:15.685Z,30.52
2022-08-05T17:20:44.215Z,30.53
2022-08-05T17:24:03.281Z,30.30
2022-08-05T17:26:00.254Z,30.82
2022-08-05T17:28:29.529Z,30.62
2022-08-05T17:30:56.928Z,30.52
2022-08-05T17:33:25.689Z,30.87
2022-08-05T17:36:07.742Z,31.03
2022-08-05T17:38:37.691Z,31.14
2022-08-05T17:41:11.710Z,31.07
2022-08-05T17:43:54.990Z,30.88
2022-08-05T17:46:23.871Z,31.22
2022-08-05T17:48:50.984Z,31.59
2022-08-05T17:51:21.687Z,31.60
2022-08-05T17:53:50.709Z,31.79
2022-08-05T17:56:22.761Z,32.17
2022-08-05T17:58:51.158Z,32.48
2022-08-05T18:01:19.939Z,32.65
2022-08-05T18:03:58.348Z,32.84
2022-08-05T18:06:29.447Z,33.18
2022-08-05T18:08:58.261Z,33.39
2022-08-05T18:11:32.447Z,33.38
2022-08-05T18:14:03.586Z,33.34
2022-08-05T18:16:32.412Z,33.01
2022-08-05T18:18:59.533Z,33.27
2022-08-05T18:22:06.912Z,33.02
2022-08-05T18:24:14.376Z,33.48
2022-08-05T18:26:41.729Z,33.60
2022-08-05T18:29:11.003Z,33.63
2022-08-05T18:31:38.409Z,33.67
2022-08-05T18:34:12.675Z,33.61
2022-08-05T18:36:41.126Z,34.09
2022-08-05T18:39:22.387Z,34.08
2022-08-05T18:42:04.619Z,33.61
2022-08-05T18:44:49.202Z,34.00
2022-08-05T18:47:22.921Z,34.39
2022-08-05T18:50:12.726Z,34.49
2022-08-05T18:52:50.494Z,35.01
2022-08-05T18:55:19.027Z,34.76
2022-08-05T18:57:53.388Z,35.32
2022-08-05T19:00:29.098Z,35.14
2022-08-05T19:03:04.006Z,35.47
2022-08-05T19:06:12.566Z,35.56
2022-08-05T19:08:19.936Z,35.45
2022-08-05T19:10:50.225Z,35.61
2022-08-05T19:13:17.736Z,36.29
2022-08-05T19:15:58.713Z,36.08
2022-08-05T19:18:27.917Z,36.37
2022-08-05T19:20:56.171Z,36.40
2022-08-05T19:24:05.141Z,36.58
2022-08-05T19:26:11.130Z,37.26
2022-08-05T19:28:43.099Z,37.53
2022-08-05T19:31:13.401Z,37.58
2022-08-05T19:33:48.619Z,38.61
2022-08-05T19:36:24.570Z,38.16
2022-08-05T19:38:51.612Z,37.66
2022-08-05T19:41:22.172Z,37.49
2022-08-05T19:44:13.859Z,38.77
2022-08-05T19:46:43.690Z,37.97
2022-08-05T19:49:12.492Z,38.37
2022-08-05T19:52:04.246Z,38.22
2022-08-05T19:54:34.212Z,38.52
2022-08-05T19:57:06.723Z,38.66
2022-08-05T20:00:01.334Z,38.52
2022-08-05T20:02:25.977Z,39.61
2022-08-05T20:04:55.061Z,39.22
2022-08-05T20:07:46.224Z,39.59
2022-08-05T20:10:13.230Z,38.96
2022-08-05T20:12:46.179Z,39.28
2022-08-05T20:15:23.374Z,39.59
2022-08-05T20:18:33.927Z,40.44
2022-08-05T20:20:57.612Z,40.86
2022-08-05T20:23:40.240Z,41.02
2022-08-05T20:26:17.201Z,41.16
2022-08-05T20:28:51.288Z,42.18
2022-08-05T20:31:28.456Z,42.27
2022-08-05T20:34:09.135Z,42.94
2022-08-05T20:36:36.582Z,43.14
2022-08-05T20:39:06.328Z,42.89
2022-08-05T20:41:43.932Z,42.59
2022-08-05T20:44:17.710Z,43.87
2022-08-05T20:46:48.213Z,43.65
2022-08-05T20:49:23.988Z,43.30
2022-08-05T20:51:53.796Z,43.43
2022-08-05T20:54:22.886Z,43.97
2022-08-05T20:56:55.127Z,43.79
2022-08-05T20:59:26.880Z,44.58
2022-08-05T21:02:10.039Z,45.06
2022-08-05T21:04:37.884Z,44.52
2022-08-05T21:07:05.311Z,44.46
2022-08-05T21:09:35.695Z,45.21
2022-08-05T21:12:10.624Z,44.59
2022-08-05T21:14:39.946Z,44.09
2022-08-05T21:17:07.043Z,44.45
2022-08-05T21:19:47.469Z,44.13
2022-08-05T21:22:21.908Z,44.44
2022-08-05T21:24:54.911Z,44.34
2022-08-05T21:27:25.013Z,44.36
2022-08-05T21:29:55.276Z,44.51
2022-08-05T21:32:26.765Z,44.40
2022-08-05T21:35:08.878Z,44.65
2022-08-05T21:37:53.174Z,44.77
2022-08-05T21:40:24.001Z,44.52
2022-08-05T21:42:53.953Z,45.66
2022-08-05T21:45:24.967Z,45.50
2022-08-05T21:48:06.299Z,45.61
2022-08-05T21:50:36.544Z,45.95
2022-08-05T21:53:16.761Z,45.85
2022-08-05T21:56:05.780Z,46.39
2022-08-05T21:58:32.773Z,45.97
2022-08-05T22:01:00.224Z,46.85
2022-08-05T22:03:52.307Z,46.62
2022-08-05T22:06:22.923Z,46.85
2022-08-05T22:09:02.284Z,47.38
2022-08-05T22:11:41.406Z,47.40
2022-08-05T22:14:37.249Z,48.23
2022-08-05T22:17:00.184Z,48.29
2022-08-05T22:20:00.227Z,48.87
2022-08-05T22:22:26.908Z,50.30
2022-08-05T22:25:18.014Z,50.44
2022-08-05T22:28:11.379Z,50.45
2022-08-05T22:30:44.017Z,50.62
2022-08-05T22:33:56.824Z,51.03
2022-08-05T22:36:14.760Z,51.24
2022-08-05T22:38:43.430Z,51.69
2022-08-05T22:41:15.674Z,51.86
2022-08-05T22:43:56.142Z,52.45
2022-08-05T22:46:25.865Z,52.66
2022-08-05T22:48:53.102Z,53.64
2022-08-05T22:51:22.634Z,53.99
2022-08-05T22:53:51.846Z,53.82
2022-08-05T22:56:30.076Z,54.27
2022-08-05T22:58:59.976Z,54.36
2022-08-05T23:02:04.825Z,54.29
2022-08-05T23:04:17.901Z,54.44
2022-08-05T23:06:44.954Z,54.52
2022-08-05T23:09:27.622Z,54.68
2022-08-05T23:12:01.830Z,55.13
2022-08-05T23:14:32.007Z,55.42
2022-08-05T23:17:24.051Z,55.89
2022-08-05T23:19:55.958Z,56.16
2022-08-05T23:22:27.383Z,56.58
2022-08-05T23:24:55.487Z,56.82
2022-08-05T23:27:22.904Z,57.63
2022-08-05T23:29:51.493Z,57.58
2022-08-05T23:32:22.804Z,57.49
2022-08-05T23:34:50.903Z,57.68
2022-08-05T23:37:18.458Z,57.80
2022-08-05T23:39:53.656Z,57.93
2022-08-05T23:42:29.373Z,58.18
2022-08-05T23:44:57.338Z,58.03
2022-08-05T23:47:25.309Z,58.61
2022-08-05T23:49:55.591Z,58.53
2022-08-05T23:52:27.586Z,58.80
2022-08-05T23:54:57.575Z,58.90
2022-08-05T23:57:28.087Z,59.09
